createdAt,value
2018-07-27T00:00:57.303Z,20.74
2018-07-27T00:01:57.250Z,20.81
2018-07-27T00:02:57.218Z,20.86
2018-07-27T00:03:57.203Z,20.89
2018-07-27T00:04:57.175Z,20.87
2018-07-27T00:05:57.137Z,20.81
2018-07-27T00:06:57.115Z,20.87
2018-07-27T00:07:57.083Z,20.76
2018-07-27T00:08:57.139Z,20.81
2018-07-27T00:09:57.420Z,20.80
2018-07-27T00:10:56.980Z,20.81
2018-07-27T00:11:56.971Z,20.79
2018-07-27T00:12:56.911Z,20.87
2018-07-27T00:13:56.890Z,20.81
2018-07-27T00:14:56.846Z,20.84
2018-07-27T00:15:56.818Z,20.93
2018-07-27T00:16:57.035Z,20.89
2018-07-27T00:17:56.971Z,20.81
2018-07-27T00:18:56.728Z,20.74
2018-07-27T00:20:56.667Z,20.74
2018-07-27T00:21:56.641Z,20.61
2018-07-27T00:22:56.608Z,20.65
2018-07-27T00:23:56.562Z,20.50
2018-07-27T00:24:56.551Z,20.64
2018-07-27T00:25:56.813Z,20.58
2018-07-27T00:26:56.520Z,20.51
2018-07-27T00:27:56.452Z,20.56
2018-07-27T00:28:56.423Z,20.61
2018-07-27T00:29:56.378Z,20.69
2018-07-27T00:30:56.353Z,20.71
2018-07-27T00:31:56.339Z,20.65
2018-07-27T00:32:56.296Z,20.65
2018-07-27T00:33:56.272Z,20.71
2018-07-27T00:34:56.231Z,20.68
2018-07-27T00:35:56.203Z,20.74
2018-07-27T00:36:56.179Z,20.72
2018-07-27T00:37:56.181Z,20.69
2018-07-27T00:38:56.099Z,20.74
2018-07-27T00:39:56.059Z,20.76
2018-07-27T00:40:56.043Z,20.69
2018-07-27T00:41:56.004Z,20.77
2018-07-27T00:43:55.949Z,20.81
2018-07-27T00:44:55.900Z,20.74
2018-07-27T00:45:55.875Z,20.74
2018-07-27T00:46:55.841Z,20.64
2018-07-27T00:47:55.833Z,20.61
2018-07-27T00:48:55.786Z,20.62
2018-07-27T00:49:55.757Z,20.65
2018-07-27T00:50:55.726Z,20.62
2018-07-27T00:51:55.689Z,20.61
2018-07-27T00:52:55.659Z,20.71
2018-07-27T00:53:55.630Z,20.53
2018-07-27T00:54:55.589Z,20.54
2018-07-27T00:55:55.569Z,20.59
2018-07-27T00:56:55.550Z,20.51
2018-07-27T00:57:55.497Z,20.47
2018-07-27T00:58:55.474Z,20.50
2018-07-27T00:59:55.428Z,20.54
2018-07-27T01:00:55.414Z,20.50
2018-07-27T01:01:55.382Z,20.50
2018-07-27T01:02:55.350Z,20.47
2018-07-27T01:03:55.319Z,20.46
2018-07-27T01:04:55.339Z,20.41
2018-07-27T01:05:55.249Z,20.43
2018-07-27T01:06:55.215Z,20.34
2018-07-27T01:07:55.203Z,20.38
2018-07-27T01:08:55.151Z,20.34
2018-07-27T01:09:55.132Z,20.34
2018-07-27T01:10:55.095Z,20.34
2018-07-27T01:11:55.064Z,20.28
2018-07-27T01:12:55.026Z,20.28
2018-07-27T01:13:55.025Z,20.13
2018-07-27T01:14:54.963Z,20.13
2018-07-27T01:15:54.934Z,20.09
2018-07-27T01:16:54.902Z,20.05
2018-07-27T01:17:54.873Z,20.05
2018-07-27T01:18:54.841Z,20.06
2018-07-27T01:19:54.812Z,20.02
2018-07-27T01:20:54.786Z,20.06
2018-07-27T01:21:54.741Z,19.97
2018-07-27T01:22:54.722Z,19.94
2018-07-27T01:23:54.724Z,19.93
2018-07-27T01:24:54.662Z,19.93
2018-07-27T01:25:54.820Z,19.95
2018-07-27T01:26:54.592Z,19.91
2018-07-27T01:27:54.560Z,19.90
2018-07-27T01:28:54.540Z,19.90
2018-07-27T01:29:54.499Z,19.79
2018-07-27T01:30:54.468Z,19.84
2018-07-27T01:31:54.432Z,19.84
2018-07-27T01:32:54.401Z,19.90
2018-07-27T01:33:54.364Z,19.91
2018-07-27T01:34:54.475Z,19.83
2018-07-27T01:35:54.301Z,19.93
2018-07-27T01:36:54.265Z,19.88
2018-07-27T01:37:54.241Z,19.95
2018-07-27T01:38:54.208Z,19.93
2018-07-27T01:39:54.266Z,19.91
2018-07-27T01:40:54.133Z,19.93
2018-07-27T01:41:54.112Z,19.84
2018-07-27T01:42:54.079Z,19.73
2018-07-27T01:43:54.048Z,19.66
2018-07-27T01:44:54.021Z,19.73
2018-07-27T01:45:53.986Z,19.66
2018-07-27T01:46:53.975Z,19.66
2018-07-27T01:47:53.926Z,19.65
2018-07-27T01:48:53.901Z,19.63
2018-07-27T01:49:53.853Z,19.61
2018-07-27T01:50:53.838Z,19.63
2018-07-27T01:51:53.804Z,19.60
2018-07-27T01:52:53.774Z,19.51
2018-07-27T01:53:53.730Z,19.60
2018-07-27T01:54:53.719Z,19.51
2018-07-27T01:55:53.683Z,19.54
2018-07-27T01:56:53.635Z,19.53
2018-07-27T01:57:53.617Z,19.50
2018-07-27T01:58:53.576Z,19.53
2018-07-27T01:59:53.549Z,19.40
2018-07-27T02:00:53.507Z,19.42
2018-07-27T02:01:53.477Z,19.53
2018-07-27T02:02:53.440Z,19.60
2018-07-27T02:03:53.467Z,19.66
2018-07-27T02:04:53.388Z,19.48
2018-07-27T02:05:53.394Z,19.68
2018-07-27T02:06:53.472Z,19.65
2018-07-27T02:07:53.293Z,19.70
2018-07-27T02:08:53.271Z,19.70
2018-07-27T02:09:53.213Z,19.65
2018-07-27T02:10:53.185Z,19.68
2018-07-27T02:11:53.157Z,19.58
2018-07-27T02:12:53.181Z,19.57
2018-07-27T02:13:53.086Z,19.53
2018-07-27T02:14:53.056Z,19.51
2018-07-27T02:15:53.025Z,19.50
2018-07-27T02:16:52.995Z,19.50
2018-07-27T02:17:52.957Z,19.47
2018-07-27T02:18:52.948Z,19.53
2018-07-27T02:19:52.902Z,19.50
2018-07-27T02:20:52.876Z,19.47
2018-07-27T02:21:52.846Z,19.35
2018-07-27T02:22:52.819Z,19.25
2018-07-27T02:23:52.777Z,19.36
2018-07-27T02:24:52.769Z,19.39
2018-07-27T02:25:52.714Z,19.46
2018-07-27T02:26:52.678Z,19.47
2018-07-27T02:27:52.641Z,19.36
2018-07-27T02:28:52.618Z,19.35
2018-07-27T02:29:52.578Z,19.28
2018-07-27T02:30:52.547Z,19.25
2018-07-27T02:31:52.522Z,19.18
2018-07-27T02:32:52.645Z,19.15
2018-07-27T02:33:52.497Z,19.18
2018-07-27T02:34:52.415Z,19.08
2018-07-27T02:35:52.396Z,19.11
2018-07-27T02:36:52.352Z,19.14
2018-07-27T02:37:52.340Z,19.15
2018-07-27T02:38:52.297Z,19.05
2018-07-27T02:39:52.302Z,19.10
2018-07-27T02:40:52.226Z,19.10
2018-07-27T02:41:52.206Z,19.06
2018-07-27T02:42:52.167Z,19.08
2018-07-27T02:43:52.131Z,19.06
2018-07-27T02:44:52.093Z,18.97
2018-07-27T02:45:52.089Z,18.99
2018-07-27T02:46:52.024Z,18.97
2018-07-27T02:47:51.996Z,18.94
2018-07-27T02:48:51.965Z,18.80
2018-07-27T02:49:51.935Z,18.86
2018-07-27T02:50:51.899Z,18.92
2018-07-27T02:51:51.872Z,18.91
2018-07-27T02:52:51.847Z,18.94
2018-07-27T02:53:51.811Z,18.94
2018-07-27T02:54:51.771Z,18.92
2018-07-27T02:55:51.778Z,18.87
2018-07-27T02:56:51.718Z,18.80
2018-07-27T02:57:51.709Z,18.84
2018-07-27T02:58:51.647Z,18.98
2018-07-27T02:59:51.622Z,18.92
2018-07-27T03:00:51.585Z,18.99
2018-07-27T03:01:51.559Z,18.94
2018-07-27T03:02:51.512Z,19.05
2018-07-27T03:03:51.505Z,19.13
2018-07-27T03:04:51.607Z,19.13
2018-07-27T03:05:51.414Z,19.15
2018-07-27T03:06:51.395Z,19.14
2018-07-27T03:07:51.360Z,19.10
2018-07-27T03:08:51.337Z,19.25
2018-07-27T03:09:51.346Z,19.25
2018-07-27T03:10:51.412Z,19.29
2018-07-27T03:11:51.235Z,19.28
2018-07-27T03:12:51.200Z,19.24
2018-07-27T03:13:51.258Z,19.11
2018-07-27T03:14:51.129Z,19.17
2018-07-27T03:15:51.097Z,19.10
2018-07-27T03:16:51.060Z,19.01
2018-07-27T03:17:51.034Z,18.87
2018-07-27T03:18:51.008Z,18.83
2018-07-27T03:19:50.962Z,18.83
2018-07-27T03:20:50.944Z,18.74
2018-07-27T03:21:50.901Z,18.76
2018-07-27T03:22:50.865Z,18.84
2018-07-27T03:23:50.844Z,18.86
2018-07-27T03:24:50.807Z,18.86
2018-07-27T03:25:50.779Z,18.83
2018-07-27T03:26:50.752Z,18.87
2018-07-27T03:27:50.717Z,18.77
2018-07-27T03:28:50.708Z,18.68
2018-07-27T03:29:50.678Z,18.62
2018-07-27T03:30:50.622Z,18.73
2018-07-27T03:31:50.584Z,18.64
2018-07-27T03:32:50.567Z,18.64
2018-07-27T03:33:50.544Z,18.54
2018-07-27T03:34:50.485Z,18.49
2018-07-27T03:35:50.456Z,18.50
2018-07-27T03:36:50.616Z,18.50
2018-07-27T03:37:50.381Z,18.49
2018-07-27T03:38:50.360Z,18.55
2018-07-27T03:39:50.315Z,18.47
2018-07-27T03:40:50.302Z,18.46
2018-07-27T03:41:50.252Z,18.42
2018-07-27T03:42:50.232Z,18.31
2018-07-27T03:43:50.240Z,18.29
2018-07-27T03:44:50.161Z,18.44
2018-07-27T03:45:50.120Z,18.52
2018-07-27T03:46:50.082Z,18.50
2018-07-27T03:47:50.055Z,18.46
2018-07-27T03:48:50.029Z,18.40
2018-07-27T03:49:49.986Z,18.33
2018-07-27T03:50:49.967Z,18.37
2018-07-27T03:51:49.923Z,18.28
2018-07-27T03:52:49.898Z,18.37
2018-07-27T03:53:49.864Z,18.37
2018-07-27T03:54:49.828Z,18.39
2018-07-27T03:55:49.800Z,18.31
2018-07-27T03:56:49.865Z,18.37
2018-07-27T03:57:49.754Z,18.27
2018-07-27T03:58:49.703Z,18.27
2018-07-27T03:59:49.673Z,18.21
2018-07-27T04:00:49.638Z,18.24
2018-07-27T04:01:49.605Z,18.29
2018-07-27T04:02:49.564Z,18.33
2018-07-27T04:03:49.748Z,18.34
2018-07-27T04:04:49.505Z,18.34
2018-07-27T04:05:49.466Z,18.24
2018-07-27T04:06:49.447Z,18.21
2018-07-27T04:07:49.405Z,18.24
2018-07-27T04:08:49.378Z,18.21
2018-07-27T04:09:49.709Z,18.22
2018-07-27T04:10:49.309Z,18.36
2018-07-27T04:11:49.294Z,18.34
2018-07-27T04:12:49.248Z,18.28
2018-07-27T04:13:49.223Z,18.33
2018-07-27T04:14:49.228Z,18.46
2018-07-27T04:15:49.143Z,18.46
2018-07-27T04:16:49.114Z,18.57
2018-07-27T04:17:49.081Z,18.57
2018-07-27T04:18:49.042Z,18.52
2018-07-27T04:19:49.038Z,18.52
2018-07-27T04:20:48.976Z,18.64
2018-07-27T04:21:48.945Z,18.64
2018-07-27T04:22:48.942Z,18.68
2018-07-27T04:23:48.879Z,18.58
2018-07-27T04:24:48.851Z,18.64
2018-07-27T04:25:48.811Z,18.73
2018-07-27T04:26:48.786Z,18.70
2018-07-27T04:27:48.754Z,18.62
2018-07-27T04:28:48.727Z,18.65
2018-07-27T04:29:48.683Z,18.55
2018-07-27T04:30:48.664Z,18.61
2018-07-27T04:31:48.617Z,18.61
2018-07-27T04:32:48.581Z,18.68
2018-07-27T04:33:48.551Z,18.62
2018-07-27T04:34:48.515Z,18.68
2018-07-27T04:35:48.524Z,18.68
2018-07-27T04:36:48.608Z,18.62
2018-07-27T04:37:48.422Z,18.65
2018-07-27T04:38:48.405Z,18.57
2018-07-27T04:39:48.351Z,18.44
2018-07-27T04:40:48.322Z,18.42
2018-07-27T04:41:48.290Z,18.33
2018-07-27T04:42:48.445Z,18.36
2018-07-27T04:43:48.234Z,18.40
2018-07-27T04:44:48.192Z,18.33
2018-07-27T04:45:48.155Z,18.27
2018-07-27T04:46:48.127Z,18.33
2018-07-27T04:47:48.089Z,18.31
2018-07-27T04:48:48.055Z,18.25
2018-07-27T04:49:48.025Z,18.22
2018-07-27T04:50:47.987Z,18.19
2018-07-27T04:51:47.956Z,18.19
2018-07-27T04:52:47.938Z,18.19
2018-07-27T04:53:47.895Z,18.12
2018-07-27T04:54:47.866Z,18.19
2018-07-27T04:55:47.826Z,18.21
2018-07-27T04:56:47.814Z,18.22
2018-07-27T04:57:47.765Z,18.19
2018-07-27T04:58:47.725Z,18.17
2018-07-27T04:59:47.692Z,18.12
2018-07-27T05:00:47.665Z,18.12
2018-07-27T05:01:47.630Z,18.10
2018-07-27T05:02:47.593Z,18.19
2018-07-27T05:03:47.759Z,18.15
2018-07-27T05:04:47.619Z,18.24
2018-07-27T05:05:47.495Z,18.25
2018-07-27T05:06:47.467Z,18.34
2018-07-27T05:07:47.426Z,18.36
2018-07-27T05:08:47.428Z,18.33
2018-07-27T05:09:47.366Z,18.42
2018-07-27T05:10:47.341Z,18.33
2018-07-27T05:11:47.316Z,18.42
2018-07-27T05:12:47.266Z,18.42
2018-07-27T05:13:47.229Z,18.25
2018-07-27T05:14:47.198Z,18.09
2018-07-27T05:15:47.178Z,18.07
2018-07-27T05:16:47.132Z,17.88
2018-07-27T05:17:47.097Z,17.85
2018-07-27T05:18:47.069Z,17.74
2018-07-27T05:19:47.042Z,17.74
2018-07-27T05:20:46.999Z,17.71
2018-07-27T05:21:46.968Z,17.66
2018-07-27T05:22:46.934Z,17.76
2018-07-27T05:23:46.901Z,17.87
2018-07-27T05:24:46.873Z,17.94
2018-07-27T05:25:46.837Z,17.95
2018-07-27T05:26:46.798Z,17.94
2018-07-27T05:27:46.776Z,17.92
2018-07-27T05:28:46.733Z,17.88
2018-07-27T05:29:46.704Z,17.92
2018-07-27T05:30:46.670Z,17.94
2018-07-27T05:31:46.645Z,18.02
2018-07-27T05:32:46.606Z,18.03
2018-07-27T05:33:46.575Z,18.06
2018-07-27T05:34:46.550Z,18.04
2018-07-27T05:35:46.805Z,17.94
2018-07-27T05:36:46.472Z,17.97
2018-07-27T05:37:46.439Z,17.89
2018-07-27T05:38:46.403Z,17.84
2018-07-27T05:39:46.369Z,17.84
2018-07-27T05:40:46.348Z,17.89
2018-07-27T05:41:46.706Z,17.95
2018-07-27T05:42:46.275Z,17.99
2018-07-27T05:43:46.243Z,17.94
2018-07-27T05:44:46.208Z,17.79
2018-07-27T05:45:46.175Z,17.85
2018-07-27T05:46:46.139Z,17.79
2018-07-27T05:47:46.259Z,17.84
2018-07-27T05:48:46.144Z,17.78
2018-07-27T05:49:46.053Z,17.81
2018-07-27T05:50:46.004Z,17.81
2018-07-27T05:51:45.973Z,17.81
2018-07-27T05:52:46.012Z,17.79
2018-07-27T05:53:45.906Z,17.84
2018-07-27T05:54:45.871Z,17.92
2018-07-27T05:55:45.845Z,18.00
2018-07-27T05:56:45.804Z,17.89
2018-07-27T05:57:45.775Z,17.97
2018-07-27T05:58:45.741Z,17.91
2018-07-27T05:59:45.706Z,17.89
2018-07-27T06:00:45.675Z,18.00
2018-07-27T06:01:45.666Z,18.03
2018-07-27T06:02:45.696Z,18.04
2018-07-27T06:03:45.776Z,17.95
2018-07-27T06:04:45.551Z,17.91
2018-07-27T06:05:45.505Z,17.94
2018-07-27T06:06:45.478Z,17.84
2018-07-27T06:07:45.442Z,17.76
2018-07-27T06:08:45.413Z,17.74
2018-07-27T06:09:45.576Z,17.63
2018-07-27T06:10:45.338Z,17.57
2018-07-27T06:11:45.310Z,17.50
2018-07-27T06:12:45.274Z,17.51
2018-07-27T06:13:45.241Z,17.51
2018-07-27T06:14:45.212Z,17.47
2018-07-27T06:15:45.174Z,17.54
2018-07-27T06:16:45.141Z,17.62
2018-07-27T06:17:45.163Z,17.62
2018-07-27T06:18:45.074Z,17.50
2018-07-27T06:19:45.042Z,17.41
2018-07-27T06:20:45.007Z,17.44
2018-07-27T06:21:44.973Z,17.35
2018-07-27T06:22:44.941Z,17.38
2018-07-27T06:23:44.936Z,17.41
2018-07-27T06:24:44.920Z,17.44
2018-07-27T06:25:44.841Z,17.50
2018-07-27T06:26:44.810Z,17.48
2018-07-27T06:27:44.773Z,17.51
2018-07-27T06:28:44.746Z,17.57
2018-07-27T06:29:44.707Z,17.57
2018-07-27T06:30:44.674Z,17.59
2018-07-27T06:31:44.650Z,17.47
2018-07-27T06:32:44.607Z,17.48
2018-07-27T06:33:44.574Z,17.43
2018-07-27T06:34:44.541Z,17.38
2018-07-27T06:35:44.709Z,17.44
2018-07-27T06:36:44.474Z,17.48
2018-07-27T06:37:44.442Z,17.48
2018-07-27T06:38:44.408Z,17.50
2018-07-27T06:39:44.376Z,17.54
2018-07-27T06:40:44.339Z,17.55
2018-07-27T06:41:44.532Z,17.63
2018-07-27T06:42:44.277Z,17.63
2018-07-27T06:43:44.242Z,17.63
2018-07-27T06:44:44.208Z,17.64
2018-07-27T06:45:44.185Z,17.69
2018-07-27T06:46:44.146Z,17.76
2018-07-27T06:47:44.108Z,17.79
2018-07-27T06:48:44.076Z,17.78
2018-07-27T06:49:44.045Z,17.79
2018-07-27T06:50:44.007Z,17.81
2018-07-27T06:51:43.972Z,17.71
2018-07-27T06:52:43.944Z,17.71
2018-07-27T06:53:43.911Z,17.70
2018-07-27T06:54:43.880Z,17.71
2018-07-27T06:55:43.846Z,17.69
2018-07-27T06:56:43.818Z,17.69
2018-07-27T06:57:43.798Z,17.70
2018-07-27T06:58:43.745Z,17.76
2018-07-27T06:59:43.708Z,17.70
2018-07-27T07:00:43.674Z,17.66
2018-07-27T07:01:43.643Z,17.69
2018-07-27T07:02:43.619Z,17.76
2018-07-27T07:03:43.580Z,17.70
2018-07-27T07:04:43.538Z,17.71
2018-07-27T07:05:43.504Z,17.63
2018-07-27T07:06:43.471Z,17.67
2018-07-27T07:07:43.467Z,17.66
2018-07-27T07:08:43.406Z,17.53
2018-07-27T07:09:43.380Z,17.57
2018-07-27T07:10:43.339Z,17.59
2018-07-27T07:11:43.311Z,17.64
2018-07-27T07:12:43.280Z,17.54
2018-07-27T07:13:43.244Z,17.54
2018-07-27T07:14:43.204Z,17.36
2018-07-27T07:15:43.178Z,17.28
2018-07-27T07:16:43.143Z,17.18
2018-07-27T07:17:43.104Z,17.20
2018-07-27T07:18:43.070Z,17.11
2018-07-27T07:19:43.038Z,17.10
2018-07-27T07:20:43.009Z,17.13
2018-07-27T07:21:42.971Z,17.11
2018-07-27T07:22:42.937Z,17.14
2018-07-27T07:23:42.909Z,17.15
2018-07-27T07:24:42.880Z,17.23
2018-07-27T07:25:42.977Z,17.20
2018-07-27T07:26:42.799Z,17.15
2018-07-27T07:28:42.742Z,17.22
2018-07-27T07:29:42.701Z,17.33
2018-07-27T07:30:42.668Z,17.40
2018-07-27T07:31:42.637Z,17.41
2018-07-27T07:32:42.605Z,17.50
2018-07-27T07:33:42.568Z,17.47
2018-07-27T07:34:42.532Z,17.44
2018-07-27T07:35:42.502Z,17.40
2018-07-27T07:36:42.469Z,17.47
2018-07-27T07:37:42.438Z,17.44
2018-07-27T07:38:42.403Z,17.35
2018-07-27T07:39:42.364Z,17.23
2018-07-27T07:40:42.344Z,17.20
2018-07-27T07:41:42.298Z,17.18
2018-07-27T07:42:42.265Z,17.15
2018-07-27T07:43:42.240Z,17.23
2018-07-27T07:44:42.197Z,17.25
2018-07-27T07:45:42.169Z,17.22
2018-07-27T07:46:42.133Z,17.30
2018-07-27T07:47:42.103Z,17.30
2018-07-27T07:48:42.063Z,17.28
2018-07-27T07:49:42.029Z,17.33
2018-07-27T07:50:41.998Z,17.32
2018-07-27T07:51:41.967Z,17.23
2018-07-27T07:52:41.933Z,17.25
2018-07-27T07:53:41.897Z,17.22
2018-07-27T07:54:41.863Z,17.29
2018-07-27T07:55:41.826Z,17.26
2018-07-27T07:56:41.797Z,17.18
2018-07-27T07:57:41.771Z,17.13
2018-07-27T07:58:41.767Z,17.10
2018-07-27T07:59:41.701Z,17.10
2018-07-27T08:00:41.662Z,17.11
2018-07-27T08:01:41.630Z,17.08
2018-07-27T08:02:41.590Z,17.03
2018-07-27T08:03:41.556Z,17.11
2018-07-27T08:04:41.525Z,17.14
2018-07-27T08:05:41.555Z,17.10
2018-07-27T08:06:41.460Z,17.08
2018-07-27T08:07:41.424Z,17.15
2018-07-27T08:08:41.388Z,17.18
2018-07-27T08:09:41.819Z,17.15
2018-07-27T08:10:41.365Z,17.22
2018-07-27T08:11:41.287Z,17.15
2018-07-27T08:12:41.262Z,17.22
2018-07-27T08:13:41.222Z,17.18
2018-07-27T08:14:41.187Z,17.29
2018-07-27T08:15:41.203Z,17.22
2018-07-27T08:16:41.120Z,17.26
2018-07-27T08:17:41.094Z,17.26
2018-07-27T08:18:41.052Z,17.23
2018-07-27T08:19:41.021Z,17.28
2018-07-27T08:20:40.987Z,17.23
2018-07-27T08:21:40.976Z,17.22
2018-07-27T08:22:40.917Z,17.20
2018-07-27T08:23:40.883Z,17.20
2018-07-27T08:24:40.854Z,17.25
2018-07-27T08:25:40.815Z,17.29
2018-07-27T08:26:41.180Z,17.25
2018-07-27T08:27:40.752Z,17.25
2018-07-27T08:28:40.715Z,17.30
2018-07-27T08:29:40.682Z,17.26
2018-07-27T08:30:40.649Z,17.23
2018-07-27T08:31:40.611Z,17.25
2018-07-27T08:32:40.627Z,17.23
2018-07-27T08:33:40.547Z,17.28
2018-07-27T08:34:40.511Z,17.17
2018-07-27T08:35:40.479Z,17.18
2018-07-27T08:36:40.445Z,17.18
2018-07-27T08:37:40.414Z,17.15
2018-07-27T08:38:40.374Z,17.18
2018-07-27T08:39:40.392Z,17.17
2018-07-27T08:40:40.309Z,17.18
2018-07-27T08:41:40.277Z,17.13
2018-07-27T08:42:40.243Z,17.11
2018-07-27T08:43:40.206Z,17.11
2018-07-27T08:44:40.181Z,17.10
2018-07-27T08:45:40.136Z,17.07
2018-07-27T08:46:40.106Z,17.04
2018-07-27T08:47:40.077Z,16.96
2018-07-27T08:48:40.036Z,17.00
2018-07-27T08:49:40.003Z,17.00
2018-07-27T08:50:39.983Z,16.92
2018-07-27T08:51:39.939Z,16.98
2018-07-27T08:52:40.164Z,16.81
2018-07-27T08:53:39.874Z,16.95
2018-07-27T08:54:39.840Z,16.88
2018-07-27T08:55:39.802Z,16.86
2018-07-27T08:56:39.766Z,16.89
2018-07-27T08:57:39.743Z,16.77
2018-07-27T08:58:39.705Z,16.80
2018-07-27T08:59:39.665Z,16.81
2018-07-27T09:00:39.630Z,16.77
2018-07-27T09:01:39.601Z,16.78
2018-07-27T09:02:39.572Z,16.81
2018-07-27T09:03:39.539Z,16.85
2018-07-27T09:04:39.495Z,16.85
2018-07-27T09:05:39.461Z,16.77
2018-07-27T09:06:39.425Z,16.80
2018-07-27T09:07:39.394Z,16.81
2018-07-27T09:08:39.358Z,16.77
2018-07-27T09:09:39.329Z,16.78
2018-07-27T09:10:39.290Z,16.70
2018-07-27T09:11:39.256Z,16.62
2018-07-27T09:12:39.226Z,16.45
2018-07-27T09:13:39.194Z,16.45
2018-07-27T09:14:39.169Z,16.33
2018-07-27T09:15:39.127Z,16.37
2018-07-27T09:16:39.088Z,16.34
2018-07-27T09:17:39.056Z,16.49
2018-07-27T09:18:39.021Z,16.55
2018-07-27T09:19:38.997Z,16.52
2018-07-27T09:20:38.951Z,16.63
2018-07-27T09:21:38.917Z,16.71
2018-07-27T09:22:38.886Z,16.63
2018-07-27T09:23:38.850Z,16.59
2018-07-27T09:24:39.007Z,16.52
2018-07-27T09:25:38.784Z,16.50
2018-07-27T09:26:38.758Z,16.48
2018-07-27T09:27:38.718Z,16.35
2018-07-27T09:28:38.687Z,16.33
2018-07-27T09:29:38.648Z,16.31
2018-07-27T09:30:38.625Z,16.38
2018-07-27T09:31:38.581Z,16.37
2018-07-27T09:32:38.546Z,16.38
2018-07-27T09:33:38.511Z,16.38
2018-07-27T09:34:38.476Z,16.35
2018-07-27T09:35:38.441Z,16.35
2018-07-27T09:36:38.409Z,16.31
2018-07-27T09:37:38.379Z,16.31
2018-07-27T09:38:38.341Z,16.35
2018-07-27T09:39:38.324Z,16.31
2018-07-27T09:40:38.294Z,16.34
2018-07-27T09:41:38.243Z,16.33
2018-07-27T09:42:38.204Z,16.41
2018-07-27T09:43:38.175Z,16.42
2018-07-27T09:44:38.139Z,16.50
2018-07-27T09:45:38.112Z,16.48
2018-07-27T09:46:38.142Z,16.50
2018-07-27T09:47:38.050Z,16.41
2018-07-27T09:48:38.003Z,16.31
2018-07-27T09:49:37.968Z,16.35
2018-07-27T09:50:37.931Z,16.40
2018-07-27T09:51:37.899Z,16.27
2018-07-27T09:52:37.870Z,16.18
2018-07-27T09:53:37.837Z,16.26
2018-07-27T09:54:37.793Z,16.26
2018-07-27T09:55:37.761Z,16.20
2018-07-27T09:56:37.886Z,16.22
2018-07-27T09:57:37.696Z,16.25
2018-07-27T09:58:37.659Z,16.25
2018-07-27T09:59:37.626Z,16.14
2018-07-27T10:00:37.599Z,16.12
2018-07-27T10:01:37.557Z,16.14
2018-07-27T10:02:37.523Z,16.23
2018-07-27T10:03:37.488Z,16.20
2018-07-27T10:04:37.467Z,16.27
2018-07-27T10:05:37.423Z,16.30
2018-07-27T10:06:37.386Z,16.25
2018-07-27T10:07:37.370Z,16.26
2018-07-27T10:08:37.325Z,16.27
2018-07-27T10:09:37.289Z,16.27
2018-07-27T10:10:37.251Z,16.35
2018-07-27T10:11:37.216Z,16.34
2018-07-27T10:12:37.189Z,16.35
2018-07-27T10:13:37.152Z,16.45
2018-07-27T10:14:37.113Z,16.40
2018-07-27T10:15:37.085Z,16.44
2018-07-27T10:16:37.048Z,16.52
2018-07-27T10:17:37.016Z,16.55
2018-07-27T10:18:37.022Z,16.62
2018-07-27T10:19:36.945Z,16.62
2018-07-27T10:20:36.933Z,16.73
2018-07-27T10:21:36.882Z,16.78
2018-07-27T10:22:36.853Z,16.89
2018-07-27T10:23:36.816Z,16.99
2018-07-27T10:24:36.779Z,16.98
2018-07-27T10:25:36.744Z,16.96
2018-07-27T10:26:36.710Z,16.96
2018-07-27T10:27:36.674Z,17.00
2018-07-27T10:28:36.639Z,17.06
2018-07-27T10:29:36.607Z,17.06
2018-07-27T10:30:36.574Z,17.07
2018-07-27T10:31:36.550Z,17.14
2018-07-27T10:32:36.505Z,17.20
2018-07-27T10:33:36.487Z,17.18
2018-07-27T10:34:36.442Z,17.15
2018-07-27T10:35:36.402Z,17.25
2018-07-27T10:36:36.376Z,17.28
2018-07-27T10:37:36.555Z,17.33
2018-07-27T10:38:36.351Z,17.30
2018-07-27T10:39:36.305Z,17.47
2018-07-27T10:40:36.239Z,17.47
2018-07-27T10:41:36.202Z,17.43
2018-07-27T10:42:36.169Z,17.46
2018-07-27T10:43:37.356Z,17.57
2018-07-27T10:44:36.106Z,17.63
2018-07-27T10:45:36.074Z,17.74
2018-07-27T10:46:36.034Z,17.71
2018-07-27T10:47:36.005Z,17.78
2018-07-27T10:48:35.971Z,17.85
2018-07-27T10:49:35.939Z,17.94
2018-07-27T10:50:35.902Z,17.94
2018-07-27T10:51:35.900Z,18.02
2018-07-27T10:52:35.834Z,18.09
2018-07-27T10:53:35.807Z,18.10
2018-07-27T10:54:35.773Z,18.21
2018-07-27T10:55:35.888Z,18.25
2018-07-27T10:56:35.703Z,18.34
2018-07-27T10:57:35.673Z,18.31
2018-07-27T10:58:35.636Z,18.29
2018-07-27T10:59:35.614Z,18.34
2018-07-27T11:00:35.585Z,18.39
2018-07-27T11:01:35.844Z,18.44
2018-07-27T11:02:35.506Z,18.49
2018-07-27T11:03:35.472Z,18.54
2018-07-27T11:04:35.440Z,18.64
2018-07-27T11:05:35.412Z,18.64
2018-07-27T11:06:35.400Z,18.72
2018-07-27T11:08:35.314Z,18.82
2018-07-27T11:09:35.276Z,18.87
2018-07-27T11:10:35.243Z,18.91
2018-07-27T11:11:35.205Z,18.99
2018-07-27T11:12:35.386Z,19.06
2018-07-27T11:13:35.373Z,19.02
2018-07-27T11:14:35.112Z,19.14
2018-07-27T11:15:35.084Z,19.25
2018-07-27T11:16:35.125Z,19.35
2018-07-27T11:17:35.093Z,19.38
2018-07-27T11:18:35.053Z,19.43
2018-07-27T11:19:34.948Z,19.57
2018-07-27T11:20:34.939Z,19.55
2018-07-27T11:21:34.880Z,19.58
2018-07-27T11:22:34.850Z,19.65
2018-07-27T11:23:34.840Z,19.69
2018-07-27T11:24:34.788Z,19.75
2018-07-27T11:25:34.791Z,19.83
2018-07-27T11:26:34.717Z,19.90
2018-07-27T11:27:34.687Z,19.91
2018-07-27T11:28:34.706Z,19.98
2018-07-27T11:29:34.648Z,19.98
2018-07-27T11:30:34.591Z,20.06
2018-07-27T11:31:34.569Z,20.15
2018-07-27T11:32:34.532Z,20.10
2018-07-27T11:33:34.495Z,20.18
2018-07-27T11:34:34.618Z,20.16
2018-07-27T11:35:34.430Z,20.21
2018-07-27T11:36:34.397Z,20.21
2018-07-27T11:37:34.370Z,20.33
2018-07-27T11:38:34.336Z,20.31
2018-07-27T11:39:34.657Z,20.30
2018-07-27T11:40:34.277Z,20.34
2018-07-27T11:41:34.240Z,20.42
2018-07-27T11:42:34.211Z,20.41
2018-07-27T11:43:34.180Z,20.50
2018-07-27T11:44:34.150Z,20.47
2018-07-27T11:45:34.168Z,20.53
2018-07-27T11:46:34.080Z,20.53
2018-07-27T11:47:34.058Z,20.64
2018-07-27T11:48:34.017Z,20.65
2018-07-27T11:49:34.076Z,20.59
2018-07-27T11:50:33.952Z,20.69
2018-07-27T11:51:33.924Z,20.71
2018-07-27T11:52:33.889Z,20.80
2018-07-27T11:53:33.866Z,20.84
2018-07-27T11:54:33.826Z,20.83
2018-07-27T11:55:33.798Z,20.90
2018-07-27T11:56:34.069Z,20.95
2018-07-27T11:57:33.735Z,21.05
2018-07-27T11:58:33.708Z,21.01
2018-07-27T11:59:33.675Z,21.08
2018-07-27T12:00:33.644Z,21.13
2018-07-27T12:01:33.618Z,21.08
2018-07-27T12:02:33.576Z,21.11
2018-07-27T12:03:33.542Z,21.19
2018-07-27T12:04:33.514Z,21.21
2018-07-27T12:05:33.484Z,21.24
2018-07-27T12:06:33.447Z,21.32
2018-07-27T12:07:33.421Z,21.29
2018-07-27T12:08:33.385Z,21.30
2018-07-27T12:09:33.353Z,21.34
2018-07-27T12:10:33.325Z,21.30
2018-07-27T12:11:33.297Z,21.41
2018-07-27T12:12:33.274Z,21.36
2018-07-27T12:13:33.231Z,21.45
2018-07-27T12:14:33.365Z,21.42
2018-07-27T12:15:33.176Z,21.48
2018-07-27T12:16:33.140Z,21.51
2018-07-27T12:17:33.105Z,21.48
2018-07-27T12:18:33.075Z,21.59
2018-07-27T12:19:33.076Z,21.54
2018-07-27T12:20:33.100Z,21.53
2018-07-27T12:21:33.165Z,21.54
2018-07-27T12:22:32.949Z,21.57
2018-07-27T12:23:32.944Z,21.60
2018-07-27T12:24:32.917Z,21.63
2018-07-27T12:25:32.859Z,21.60
2018-07-27T12:26:32.837Z,21.61
2018-07-27T12:27:32.807Z,21.67
2018-07-27T12:28:32.927Z,21.66
2018-07-27T12:29:32.753Z,21.78
2018-07-27T12:30:32.727Z,21.74
2018-07-27T12:31:32.676Z,21.79
2018-07-27T12:32:32.667Z,21.88
2018-07-27T12:33:32.633Z,21.85
2018-07-27T12:34:32.748Z,21.85
2018-07-27T12:35:32.638Z,21.95
2018-07-27T12:36:32.517Z,21.94
2018-07-27T12:37:32.493Z,21.97
2018-07-27T12:38:32.452Z,22.04
2018-07-27T12:39:32.424Z,22.02
2018-07-27T12:40:32.398Z,22.02
2018-07-27T12:41:32.368Z,22.10
2018-07-27T12:42:32.355Z,22.04
2018-07-27T12:43:32.409Z,22.17
2018-07-27T12:44:32.315Z,22.19
2018-07-27T12:45:32.585Z,22.23
2018-07-27T12:46:32.236Z,22.16
2018-07-27T12:47:32.181Z,22.17
2018-07-27T12:48:32.145Z,22.19
2018-07-27T12:49:32.120Z,22.23
2018-07-27T12:50:32.090Z,22.23
2018-07-27T12:51:32.063Z,22.23
2018-07-27T12:52:32.022Z,22.28
2018-07-27T12:53:31.993Z,22.27
2018-07-27T12:54:31.957Z,22.37
2018-07-27T12:55:31.928Z,22.32
2018-07-27T12:56:31.900Z,22.39